createdAt,value
2019-03-12T00:02:21.880Z,3.50
2019-03-12T00:04:56.515Z,3.50
2019-03-12T00:07:27.394Z,3.40
2019-03-12T00:09:57.926Z,3.40
2019-03-12T00:12:29.815Z,3.40
2019-03-12T00:15:00.459Z,3.50
2019-03-12T00:17:31.057Z,3.20
2019-03-12T00:20:02.012Z,3.40
2019-03-12T00:22:36.668Z,3.40
2019-03-12T00:25:07.985Z,3.30
2019-03-12T00:27:38.587Z,3.30
2019-03-12T00:30:10.909Z,3.30
2019-03-12T00:32:43.998Z,3.30
2019-03-12T00:35:15.997Z,3.20
2019-03-12T00:37:46.890Z,3.10
2019-03-12T00:40:18.607Z,3.30
2019-03-12T00:42:49.207Z,3.10
2019-03-12T00:45:21.088Z,3.10
2019-03-12T00:47:51.660Z,3.00
2019-03-12T00:50:22.330Z,3.00
2019-03-12T00:52:52.968Z,3.20
2019-03-12T00:55:23.640Z,3.00
2019-03-12T00:57:54.337Z,3.00
2019-03-12T01:00:24.984Z,3.00
2019-03-12T01:02:55.665Z,3.00
2019-03-12T01:05:26.671Z,3.00
2019-03-12T01:07:57.276Z,2.90
2019-03-12T01:10:27.907Z,2.90
2019-03-12T01:12:58.513Z,2.90
2019-03-12T01:15:29.146Z,2.90
2019-03-12T01:18:00.379Z,2.80
2019-03-12T01:20:31.620Z,2.80
2019-03-12T01:23:05.286Z,2.80
2019-03-12T01:25:35.964Z,2.80
2019-03-12T01:28:06.612Z,2.80
2019-03-12T01:30:37.564Z,2.80
2019-03-12T01:33:08.165Z,2.70
2019-03-12T01:35:40.132Z,2.70
2019-03-12T01:38:16.433Z,2.80
2019-03-12T01:40:47.093Z,3.00
2019-03-12T01:43:20.900Z,2.80
2019-03-12T01:45:51.451Z,2.80
2019-03-12T01:48:25.367Z,2.80
2019-03-12T01:50:55.996Z,2.70
2019-03-12T01:53:28.621Z,2.80
2019-03-12T01:56:01.908Z,2.80
2019-03-12T01:58:32.490Z,2.80
2019-03-12T02:01:03.169Z,2.80
2019-03-12T02:03:35.269Z,2.90
2019-03-12T02:06:06.517Z,3.00
2019-03-12T02:08:37.484Z,3.00
2019-03-12T02:11:08.118Z,3.10
2019-03-12T02:13:39.072Z,3.10
2019-03-12T02:16:11.286Z,3.10
2019-03-12T02:18:44.678Z,3.20
2019-03-12T02:21:15.709Z,3.20
2019-03-12T02:23:47.261Z,3.10
2019-03-12T02:26:19.431Z,3.20
2019-03-12T02:28:52.944Z,3.30
2019-03-12T02:31:23.550Z,3.40
2019-03-12T02:33:54.637Z,3.20
2019-03-12T02:36:28.563Z,2.90
2019-03-12T02:39:03.264Z,3.10
2019-03-12T02:41:33.890Z,3.10
2019-03-12T02:44:04.590Z,3.10
2019-03-12T02:46:35.272Z,3.00
2019-03-12T02:49:09.351Z,3.00
2019-03-12T02:51:43.172Z,2.90
2019-03-12T02:54:15.586Z,2.90
2019-03-12T02:56:46.211Z,2.90
2019-03-12T02:59:18.780Z,2.90
2019-03-12T03:01:49.403Z,2.90
2019-03-12T03:04:20.021Z,2.90
2019-03-12T03:06:58.879Z,2.90
2019-03-12T03:09:29.481Z,2.90
2019-03-12T03:12:00.552Z,2.90
2019-03-12T03:14:35.703Z,2.90
2019-03-12T03:17:07.910Z,2.80
2019-03-12T03:19:38.922Z,2.90
2019-03-12T03:22:10.211Z,2.90
2019-03-12T03:24:40.805Z,2.90
2019-03-12T03:27:15.014Z,2.90
2019-03-12T03:29:45.931Z,2.90
2019-03-12T03:32:18.245Z,2.90
2019-03-12T03:34:49.349Z,2.80
2019-03-12T03:37:19.982Z,2.90
2019-03-12T03:39:51.374Z,2.90
2019-03-12T03:42:22.314Z,2.80
2019-03-12T03:44:55.717Z,2.90
2019-03-12T03:47:26.326Z,2.90
2019-03-12T03:49:57.041Z,2.90
2019-03-12T03:52:27.683Z,2.90
2019-03-12T03:54:58.282Z,2.80
2019-03-12T03:57:28.992Z,2.80
2019-03-12T03:59:59.821Z,2.80
2019-03-12T04:02:30.446Z,2.80
2019-03-12T04:05:01.062Z,2.80
2019-03-12T04:07:31.761Z,2.70
2019-03-12T04:10:02.331Z,2.70
2019-03-12T04:12:33.569Z,2.70
2019-03-12T04:15:04.789Z,2.60
2019-03-12T04:17:35.864Z,2.60
2019-03-12T04:20:09.778Z,2.50
2019-03-12T04:22:40.450Z,2.50
2019-03-12T04:25:11.859Z,2.50
2019-03-12T04:27:42.448Z,2.50
2019-03-12T04:30:18.317Z,2.50
2019-03-12T04:32:49.289Z,2.50
2019-03-12T04:35:34.940Z,2.60
2019-03-12T04:38:07.233Z,2.60
2019-03-12T04:40:40.270Z,2.60
2019-03-12T04:43:10.760Z,2.60
2019-03-12T04:45:41.375Z,2.60
2019-03-12T04:48:11.921Z,2.50
2019-03-12T04:50:42.501Z,2.60
2019-03-12T04:56:31.690Z,2.50
2019-03-12T04:59:03.003Z,2.50
2019-03-12T05:01:36.743Z,2.40
2019-03-12T05:04:10.626Z,2.30
2019-03-12T05:06:41.259Z,2.40
2019-03-12T05:09:11.847Z,2.40
2019-03-12T05:11:42.537Z,2.40
2019-03-12T05:14:24.845Z,2.40
2019-03-12T05:16:59.342Z,2.40
2019-03-12T05:19:30.952Z,2.40
2019-03-12T05:22:01.939Z,2.40
2019-03-12T05:24:32.592Z,2.40
2019-03-12T05:27:03.718Z,2.40
2019-03-12T05:29:34.356Z,2.50
2019-03-12T05:32:06.018Z,2.50
2019-03-12T05:34:36.686Z,2.50
2019-03-12T05:37:07.682Z,2.50
2019-03-12T05:39:39.695Z,2.50
2019-03-12T05:42:14.057Z,2.50
2019-03-12T05:44:44.643Z,2.50
2019-03-12T05:47:16.293Z,2.50
2019-03-12T05:49:46.832Z,2.50
2019-03-12T05:52:18.581Z,2.60
2019-03-12T05:54:51.696Z,2.60
2019-03-12T05:57:22.281Z,2.60
2019-03-12T05:59:56.061Z,2.60
2019-03-12T06:02:26.678Z,2.60
2019-03-12T06:04:57.280Z,2.70
2019-03-12T06:07:28.793Z,2.70
2019-03-12T06:09:59.422Z,2.80
2019-03-12T06:12:30.031Z,3.10
2019-03-12T06:15:00.585Z,2.90
2019-03-12T06:17:31.202Z,2.90
2019-03-12T06:20:01.836Z,2.90
2019-03-12T06:22:32.526Z,2.90
2019-03-12T06:25:03.232Z,3.00
2019-03-12T06:27:33.804Z,3.30
2019-03-12T06:30:06.544Z,3.60
2019-03-12T06:32:51.117Z,3.80
2019-03-12T06:35:23.391Z,3.90
2019-03-12T06:37:55.627Z,4.30
2019-03-12T06:40:37.232Z,4.90
2019-03-12T06:43:11.118Z,5.70
2019-03-12T06:45:55.636Z,5.50
2019-03-12T06:48:33.595Z,6.40
2019-03-12T06:51:08.622Z,7.80
2019-03-12T06:53:40.845Z,9.40
2019-03-12T06:56:16.151Z,10.50
2019-03-12T06:59:03.761Z,11.40
2019-03-12T07:01:41.993Z,10.70
2019-03-12T07:04:30.776Z,9.70
2019-03-12T07:07:11.495Z,8.60
2019-03-12T07:09:52.461Z,7.60
2019-03-12T07:12:41.051Z,7.00
2019-03-12T07:15:16.652Z,6.20
2019-03-12T07:17:49.104Z,6.10
2019-03-12T07:20:36.714Z,5.90
2019-03-12T07:23:24.106Z,5.70
2019-03-12T07:25:59.850Z,5.60
2019-03-12T07:28:49.539Z,5.60
2019-03-12T07:31:17.859Z,5.70
2019-03-12T07:33:55.994Z,5.70
2019-03-12T07:36:28.340Z,5.90
2019-03-12T07:39:17.487Z,6.00
2019-03-12T07:41:58.652Z,6.10
2019-03-12T07:44:48.112Z,6.30
2019-03-12T07:47:20.328Z,6.70
2019-03-12T07:49:52.505Z,6.90
2019-03-12T07:52:37.489Z,6.80
2019-03-12T07:55:09.768Z,6.80
2019-03-12T07:57:44.842Z,6.70
2019-03-12T08:00:30.346Z,6.70
2019-03-12T08:03:02.579Z,6.80
2019-03-12T08:05:34.912Z,6.80
2019-03-12T08:08:16.317Z,6.60
2019-03-12T08:10:51.569Z,6.50
2019-03-12T08:13:24.401Z,6.50
2019-03-12T08:16:08.895Z,6.60
2019-03-12T08:18:53.346Z,6.70
2019-03-12T08:21:40.710Z,6.40
2019-03-12T08:24:21.914Z,6.50
2019-03-12T08:26:54.686Z,6.50
2019-03-12T08:29:30.716Z,6.40
2019-03-12T08:32:11.823Z,6.70
2019-03-12T08:34:56.364Z,7.10
2019-03-12T08:37:28.665Z,7.30
2019-03-12T08:40:06.903Z,7.10
2019-03-12T08:42:54.417Z,7.60
2019-03-12T08:45:24.214Z,7.60
2019-03-12T08:48:05.221Z,7.90
2019-03-12T08:50:40.063Z,7.80
2019-03-12T08:53:28.181Z,8.00
2019-03-12T08:56:09.150Z,7.90
2019-03-12T08:59:06.921Z,8.20
2019-03-12T09:01:50.992Z,9.70
2019-03-12T09:04:29.353Z,9.80
2019-03-12T09:07:19.702Z,10.20
2019-03-12T09:09:52.012Z,11.00
2019-03-12T09:12:25.245Z,11.80
2019-03-12T09:14:57.545Z,12.00
2019-03-12T09:17:41.740Z,11.30
2019-03-12T09:20:32.368Z,10.80
2019-03-12T09:23:04.610Z,10.40
2019-03-12T09:25:39.611Z,10.90
2019-03-12T09:28:11.965Z,11.10
2019-03-12T09:31:00.613Z,11.60
2019-03-12T09:33:32.790Z,11.70
2019-03-12T09:36:05.117Z,11.90
2019-03-12T09:38:37.350Z,11.90
2019-03-12T09:41:09.633Z,11.90
2019-03-12T09:43:59.765Z,11.90
2019-03-12T09:46:35.544Z,12.20
2019-03-12T09:49:13.686Z,12.30
2019-03-12T09:51:56.405Z,12.30
2019-03-12T09:54:37.977Z,12.30
2019-03-12T09:57:16.647Z,12.00
2019-03-12T09:59:50.169Z,12.10
2019-03-12T10:02:28.443Z,12.00
2019-03-12T10:05:00.654Z,12.00
2019-03-12T10:07:39.921Z,12.40
2019-03-12T10:10:30.233Z,12.50
2019-03-12T10:13:12.292Z,13.50
2019-03-12T10:15:44.551Z,13.70
2019-03-12T10:18:22.815Z,13.60
2019-03-12T10:20:55.072Z,13.50
2019-03-12T10:23:33.488Z,12.80
2019-03-12T10:26:08.677Z,13.00
2019-03-12T10:28:55.917Z,12.10
2019-03-12T10:31:43.614Z,12.00
2019-03-12T10:34:29.957Z,12.00
2019-03-12T10:37:16.404Z,12.80
2019-03-12T10:40:11.531Z,13.10
2019-03-12T10:43:06.353Z,13.40
2019-03-12T10:45:53.592Z,13.60
2019-03-12T10:48:25.213Z,13.50
2019-03-12T10:50:56.027Z,13.00
2019-03-12T10:53:26.644Z,12.20
2019-03-12T10:55:57.322Z,11.80
2019-03-12T10:58:29.462Z,11.30
2019-03-12T11:01:00.129Z,11.30
2019-03-12T11:03:31.024Z,11.30
2019-03-12T11:06:01.633Z,11.30
2019-03-12T11:08:32.315Z,11.40
2019-03-12T11:11:03.802Z,10.80
2019-03-12T11:13:34.405Z,10.70
2019-03-12T11:16:05.905Z,10.30
2019-03-12T11:18:36.595Z,10.30
2019-03-12T11:21:07.250Z,10.30
2019-03-12T11:23:38.197Z,10.50
2019-03-12T11:26:09.147Z,10.50
2019-03-12T11:28:39.756Z,10.60
2019-03-12T11:31:10.409Z,10.40
2019-03-12T11:33:41.020Z,10.50
2019-03-12T11:36:18.127Z,10.60
2019-03-12T11:38:48.776Z,10.60
2019-03-12T11:41:19.501Z,10.70
2019-03-12T11:43:50.113Z,10.90
2019-03-12T11:46:21.079Z,10.90
2019-03-12T11:48:52.902Z,10.90
2019-03-12T11:51:23.709Z,11.90
2019-03-12T11:53:54.257Z,11.70
2019-03-12T11:56:24.901Z,12.50
2019-03-12T11:58:55.614Z,12.60
2019-03-12T12:01:26.419Z,12.70
2019-03-12T12:03:57.006Z,13.00
2019-03-12T12:06:27.601Z,13.00
2019-03-12T12:08:58.204Z,12.50
2019-03-12T12:11:28.928Z,12.10
2019-03-12T12:13:59.552Z,12.10
2019-03-12T12:16:30.685Z,11.80
2019-03-12T12:19:01.267Z,11.50
2019-03-12T12:21:34.049Z,11.40
2019-03-12T12:24:04.730Z,11.30
2019-03-12T12:26:35.456Z,11.20
2019-03-12T12:29:06.033Z,10.90
2019-03-12T12:31:37.692Z,11.10
2019-03-12T12:34:08.322Z,11.00
2019-03-12T12:36:38.966Z,11.00
2019-03-12T12:39:10.741Z,10.80
2019-03-12T12:41:47.575Z,10.70
2019-03-12T12:44:18.185Z,10.90
2019-03-12T12:46:48.778Z,10.80
2019-03-12T12:49:19.368Z,10.70
2019-03-12T12:51:49.987Z,10.50
2019-03-12T12:54:20.569Z,10.60
2019-03-12T12:56:57.297Z,10.80
2019-03-12T12:59:27.907Z,11.30
2019-03-12T13:01:58.521Z,11.60
2019-03-12T13:04:29.149Z,11.60
2019-03-12T13:07:00.204Z,11.50
2019-03-12T13:09:30.791Z,11.50
2019-03-12T13:12:01.344Z,11.70
2019-03-12T13:14:41.416Z,11.60
2019-03-12T13:17:04.866Z,11.20
2019-03-12T13:19:37.157Z,11.40
2019-03-12T13:22:07.803Z,11.50
2019-03-12T13:24:38.389Z,11.40
2019-03-12T13:27:17.069Z,11.50
2019-03-12T13:29:47.984Z,11.70
2019-03-12T13:32:19.447Z,11.60
2019-03-12T13:34:50.287Z,11.50
2019-03-12T13:37:20.925Z,11.60
2019-03-12T13:39:51.569Z,11.40
2019-03-12T13:42:22.149Z,11.30
2019-03-12T13:44:54.861Z,11.50
2019-03-12T13:47:28.755Z,11.60
2019-03-12T13:49:59.114Z,11.60
2019-03-12T13:52:29.773Z,11.70
2019-03-12T13:55:01.697Z,11.60
2019-03-12T13:57:32.677Z,11.50
2019-03-12T14:00:03.810Z,11.30
2019-03-12T14:02:34.647Z,11.20
2019-03-12T14:05:06.901Z,11.20
2019-03-12T14:07:37.549Z,11.30
2019-03-12T14:10:18.040Z,11.10
2019-03-12T14:12:48.758Z,11.30
2019-03-12T14:15:39.363Z,11.50
2019-03-12T14:18:09.979Z,11.50
2019-03-12T14:20:52.773Z,11.50
2019-03-12T14:23:34.731Z,11.40
2019-03-12T14:26:05.756Z,11.30
2019-03-12T14:28:36.415Z,11.20
2019-03-12T14:31:07.042Z,11.30
2019-03-12T14:33:37.822Z,11.10
2019-03-12T14:36:08.411Z,11.00
2019-03-12T14:38:44.375Z,11.00
2019-03-12T14:41:14.089Z,11.00
2019-03-12T14:43:44.690Z,10.80
2019-03-12T14:46:15.513Z,10.60
2019-03-12T14:48:49.304Z,10.60
2019-03-12T14:51:30.679Z,10.60
2019-03-12T14:54:15.162Z,10.50
2019-03-12T14:56:46.345Z,10.40
2019-03-12T14:59:17.403Z,10.40
2019-03-12T15:01:47.991Z,10.40
2019-03-12T15:04:19.360Z,10.50
2019-03-12T15:06:50.000Z,10.50
2019-03-12T15:09:23.970Z,10.50
2019-03-12T15:11:55.069Z,10.50
2019-03-12T15:14:25.750Z,10.50
2019-03-12T15:16:56.880Z,10.50
2019-03-12T15:19:29.225Z,10.50
2019-03-12T15:21:59.768Z,10.50
2019-03-12T15:24:30.499Z,10.40
2019-03-12T15:27:01.217Z,10.30
2019-03-12T15:29:31.977Z,10.50
2019-03-12T15:32:04.813Z,10.60
2019-03-12T15:34:35.617Z,10.30
2019-03-12T15:37:06.253Z,10.20
2019-03-12T15:39:36.952Z,10.10
2019-03-12T15:42:08.508Z,10.10
2019-03-12T15:44:39.109Z,9.70
2019-03-12T15:47:09.801Z,9.60
2019-03-12T15:49:42.850Z,9.50
2019-03-12T15:52:13.689Z,9.40
2019-03-12T15:54:45.255Z,9.50
2019-03-12T15:57:17.051Z,9.50
2019-03-12T15:59:48.345Z,9.30
2019-03-12T16:02:18.943Z,9.20
2019-03-12T16:04:49.579Z,9.20
2019-03-12T16:07:20.275Z,9.10
2019-03-12T16:09:51.737Z,8.90
2019-03-12T16:12:22.446Z,8.90
2019-03-12T16:14:53.115Z,8.80
2019-03-12T16:17:23.740Z,8.80
2019-03-12T16:19:54.433Z,8.70
2019-03-12T16:22:28.144Z,8.60
2019-03-12T16:24:59.366Z,8.50
2019-03-12T16:27:29.953Z,8.50
2019-03-12T16:30:01.432Z,8.50
2019-03-12T16:32:35.219Z,8.50
2019-03-12T16:35:06.051Z,8.40
2019-03-12T16:37:40.090Z,8.40
2019-03-12T16:40:21.089Z,8.30
2019-03-12T16:42:51.694Z,8.30
2019-03-12T16:45:22.901Z,8.20
2019-03-12T16:47:53.512Z,8.10
2019-03-12T16:50:24.108Z,8.00
2019-03-12T16:52:55.856Z,8.00
2019-03-12T16:55:26.477Z,7.90
2019-03-12T16:57:57.093Z,7.80
2019-03-12T17:00:29.469Z,7.70
2019-03-12T17:03:00.113Z,7.60
2019-03-12T17:05:30.959Z,7.50
2019-03-12T17:08:01.641Z,7.50
2019-03-12T17:10:32.274Z,7.50
2019-03-12T17:13:02.941Z,7.40
2019-03-12T17:15:33.838Z,7.40
2019-03-12T17:18:04.988Z,7.20
2019-03-12T17:20:35.863Z,7.20
2019-03-12T17:23:08.128Z,7.10
2019-03-12T17:25:38.756Z,7.00
2019-03-12T17:28:09.371Z,7.00
2019-03-12T17:30:46.910Z,6.80
2019-03-12T17:33:17.490Z,6.70
2019-03-12T17:35:48.235Z,6.60
2019-03-12T17:38:18.845Z,6.50
2019-03-12T17:40:50.505Z,6.30
2019-03-12T17:43:21.093Z,6.30
2019-03-12T17:45:51.728Z,6.30
2019-03-12T17:48:26.514Z,6.30
2019-03-12T17:50:57.544Z,6.20
2019-03-12T17:53:34.492Z,6.10
2019-03-12T17:56:05.853Z,6.00
2019-03-12T17:58:37.041Z,6.00
2019-03-12T18:01:12.385Z,5.90
2019-03-12T18:03:46.421Z,5.90
2019-03-12T18:06:20.327Z,5.70
2019-03-12T18:08:50.841Z,5.70
2019-03-12T18:11:21.734Z,5.60
2019-03-12T18:13:52.324Z,5.40
2019-03-12T18:16:23.022Z,5.30
2019-03-12T18:18:53.631Z,5.30
2019-03-12T18:21:24.234Z,5.40
2019-03-12T18:23:54.814Z,5.20
2019-03-12T18:26:25.453Z,5.00
2019-03-12T18:28:59.142Z,5.20
2019-03-12T18:31:29.310Z,5.10
2019-03-12T18:33:59.997Z,5.00
2019-03-12T18:36:30.586Z,4.90
2019-03-12T18:39:03.191Z,4.90
2019-03-12T18:41:33.703Z,4.90
2019-03-12T18:44:05.589Z,4.70
2019-03-12T18:46:37.657Z,4.60
2019-03-12T18:49:08.342Z,4.60
2019-03-12T18:51:39.016Z,4.50
2019-03-12T18:54:11.009Z,4.40
2019-03-12T18:56:42.417Z,4.40
2019-03-12T18:59:13.006Z,4.50
2019-03-12T19:01:43.546Z,4.50
2019-03-12T19:04:14.155Z,4.40
2019-03-12T19:06:44.761Z,4.40
2019-03-12T19:09:15.894Z,4.30
2019-03-12T19:14:13.795Z,4.20
2019-03-12T19:16:44.584Z,4.10
2019-03-12T19:19:15.263Z,4.10
2019-03-12T19:21:45.867Z,4.00
2019-03-12T19:24:16.555Z,4.00
2019-03-12T19:26:48.211Z,3.90
2019-03-12T19:29:18.811Z,3.80
2019-03-12T19:31:53.738Z,3.80
2019-03-12T19:34:28.945Z,3.80
2019-03-12T19:36:58.664Z,3.80
2019-03-12T19:39:29.561Z,3.70
2019-03-12T19:42:03.417Z,3.70
2019-03-12T19:44:36.865Z,3.60
2019-03-12T19:47:06.640Z,3.50
2019-03-12T19:49:37.357Z,3.50
2019-03-12T19:52:08.010Z,3.40
2019-03-12T19:54:40.543Z,3.40
2019-03-12T19:57:15.429Z,3.30
2019-03-12T19:59:46.289Z,3.20
2019-03-12T20:02:19.963Z,3.20
2019-03-12T20:04:50.602Z,3.20
2019-03-12T20:07:21.332Z,3.10
2019-03-12T20:09:56.359Z,3.00
2019-03-12T20:13:00.341Z,3.00
2019-03-12T20:15:46.980Z,3.00
2019-03-12T20:18:59.401Z,2.90
2019-03-12T20:21:59.299Z,2.80
2019-03-12T20:25:24.740Z,2.80
2019-03-12T20:28:37.432Z,2.70
2019-03-12T20:31:21.707Z,2.60
2019-03-12T20:34:29.257Z,2.60
2019-03-12T20:37:26.974Z,2.50
2019-03-12T20:40:35.668Z,2.50
2019-03-12T20:43:30.520Z,2.60
2019-03-12T20:46:37.301Z,2.50
2019-03-12T20:49:31.813Z,2.40
2019-03-12T20:53:00.627Z,2.40
2019-03-12T20:55:45.156Z,2.40
2019-03-12T20:59:10.855Z,2.40
2019-03-12T21:02:09.460Z,2.30
2019-03-12T21:05:20.870Z,2.30
2019-03-12T21:08:24.426Z,2.20
2019-03-12T21:11:43.837Z,2.10
2019-03-12T21:14:38.616Z,2.10
2019-03-12T21:17:49.985Z,2.00
2019-03-12T21:20:59.693Z,1.80
2019-03-12T21:23:43.600Z,2.00
2019-03-12T21:26:42.669Z,1.70
2019-03-12T21:29:45.183Z,1.70
2019-03-12T21:32:19.734Z,1.70
2019-03-12T21:34:50.040Z,1.70
2019-03-12T21:37:24.211Z,1.70
2019-03-12T21:39:56.172Z,1.70
2019-03-12T21:42:28.270Z,1.80
2019-03-12T21:45:00.903Z,1.60
2019-03-12T21:47:31.541Z,1.60
2019-03-12T21:50:02.092Z,1.60
2019-03-12T21:52:32.652Z,1.60
2019-03-12T21:55:03.754Z,1.70
2019-03-12T21:57:34.323Z,1.50
2019-03-12T22:00:10.575Z,1.50
2019-03-12T22:02:41.201Z,1.50
2019-03-12T22:05:11.903Z,1.40
2019-03-12T22:07:43.379Z,1.50
2019-03-12T22:10:14.153Z,1.40
2019-03-12T22:12:45.371Z,1.40
2019-03-12T22:15:16.682Z,1.40
2019-03-12T22:17:47.386Z,1.40
2019-03-12T22:20:18.101Z,1.30
2019-03-12T22:22:50.306Z,1.30
2019-03-12T22:25:20.971Z,1.30
2019-03-12T22:27:51.747Z,1.30
2019-03-12T22:30:25.248Z,1.30
2019-03-12T22:32:55.851Z,1.30
2019-03-12T22:35:26.385Z,1.20
2019-03-12T22:37:57.018Z,1.10
2019-03-12T22:40:27.586Z,1.10
2019-03-12T22:42:58.232Z,1.10
2019-03-12T22:45:27.183Z,1.00
2019-03-12T22:47:57.705Z,1.00
2019-03-12T22:50:28.302Z,1.00
2019-03-12T22:52:58.889Z,0.90
2019-03-12T22:55:29.521Z,1.00
2019-03-12T22:58:00.965Z,0.90
2019-03-12T23:00:33.239Z,1.00
2019-03-12T23:03:03.980Z,0.80
2019-03-12T23:05:34.635Z,0.90
2019-03-12T23:08:05.143Z,0.80
2019-03-12T23:10:35.863Z,0.80
2019-03-12T23:13:07.451Z,0.70
2019-03-12T23:15:38.087Z,0.90
2019-03-12T23:18:08.768Z,0.60
2019-03-12T23:20:39.365Z,0.60
2019-03-12T23:23:09.982Z,0.60
2019-03-12T23:25:43.331Z,0.60
2019-03-12T23:28:13.043Z,0.60
2019-03-12T23:30:43.655Z,0.50
2019-03-12T23:33:14.286Z,0.50
2019-03-12T23:35:44.929Z,0.50
2019-03-12T23:38:15.681Z,0.40
2019-03-12T23:40:46.377Z,0.50
2019-03-12T23:43:16.999Z,0.50
2019-03-12T23:45:47.644Z,0.40
2019-03-12T23:48:18.503Z,0.50
2019-03-12T23:50:49.112Z,0.40
2019-03-12T23:53:19.804Z,0.40
2019-03-12T23:55:50.439Z,0.40
2019-03-12T23:58:23.741Z,0.30
